createdAt,value
2018-06-21T00:00:48.268Z,21.08
2018-06-21T00:01:53.772Z,21.09
2018-06-21T00:02:58.280Z,21.13
2018-06-21T00:04:03.916Z,21.17
2018-06-21T00:05:09.316Z,21.23
2018-06-21T00:06:15.839Z,21.21
2018-06-21T00:07:21.379Z,21.24
2018-06-21T00:08:25.869Z,21.26
2018-06-21T00:09:31.398Z,21.20
2018-06-21T00:10:36.927Z,21.23
2018-06-21T00:11:43.438Z,21.27
2018-06-21T00:12:48.957Z,21.36
2018-06-21T00:13:53.461Z,21.24
2018-06-21T00:14:59.045Z,21.32
2018-06-21T00:16:04.490Z,21.27
2018-06-21T00:17:11.020Z,21.29
2018-06-21T00:18:16.545Z,21.29
2018-06-21T00:19:21.059Z,21.39
2018-06-21T00:20:26.569Z,21.36
2018-06-21T00:21:32.077Z,21.32
2018-06-21T00:22:38.620Z,21.30
2018-06-21T00:23:44.127Z,21.41
2018-06-21T00:24:48.641Z,21.42
2018-06-21T00:25:54.162Z,21.42
2018-06-21T00:26:59.666Z,21.44
2018-06-21T00:28:06.207Z,21.44
2018-06-21T00:29:11.723Z,21.45
2018-06-21T00:30:16.225Z,21.45
2018-06-21T00:31:21.763Z,21.48
2018-06-21T00:32:27.277Z,21.50
2018-06-21T00:33:33.795Z,21.48
2018-06-21T00:34:39.313Z,21.50
2018-06-21T00:35:43.812Z,21.39
2018-06-21T00:36:49.433Z,21.54
2018-06-21T00:37:54.800Z,21.51
2018-06-21T00:39:01.374Z,21.39
2018-06-21T00:40:06.898Z,21.48
2018-06-21T00:41:11.410Z,21.48
2018-06-21T00:42:16.938Z,21.48
2018-06-21T00:43:22.437Z,21.48
2018-06-21T00:44:28.967Z,21.41
2018-06-21T00:45:34.483Z,21.53
2018-06-21T00:46:39.000Z,21.50
2018-06-21T00:47:44.505Z,21.48
2018-06-21T00:48:50.029Z,21.41
2018-06-21T00:49:56.565Z,21.45
2018-06-21T00:51:02.086Z,21.30
2018-06-21T00:52:06.579Z,21.34
2018-06-21T00:53:12.097Z,21.34
2018-06-21T00:54:17.611Z,21.38
2018-06-21T00:55:24.153Z,21.23
2018-06-21T00:56:29.666Z,21.17
2018-06-21T00:57:34.178Z,21.13
2018-06-21T00:58:39.694Z,21.09
2018-06-21T00:59:45.223Z,21.04
2018-06-21T01:00:51.730Z,20.93
2018-06-21T01:01:57.247Z,20.90
2018-06-21T01:03:01.765Z,20.90
2018-06-21T01:04:07.287Z,20.84
2018-06-21T01:05:12.804Z,20.90
2018-06-21T01:06:19.333Z,20.80
2018-06-21T01:07:24.844Z,20.76
2018-06-21T01:08:29.373Z,20.81
2018-06-21T01:09:34.866Z,20.84
2018-06-21T01:10:40.382Z,20.76
2018-06-21T01:11:46.907Z,20.77
2018-06-21T01:12:52.426Z,20.64
2018-06-21T01:13:56.944Z,20.74
2018-06-21T01:15:02.465Z,20.71
2018-06-21T01:16:07.979Z,20.65
2018-06-21T01:17:14.500Z,20.61
2018-06-21T01:18:20.022Z,20.65
2018-06-21T01:19:24.519Z,20.61
2018-06-21T01:20:30.043Z,20.54
2018-06-21T01:21:35.569Z,20.51
2018-06-21T01:22:42.090Z,20.46
2018-06-21T01:23:47.605Z,20.30
2018-06-21T01:24:52.112Z,20.31
2018-06-21T01:25:57.630Z,20.31
2018-06-21T01:27:03.163Z,20.23
2018-06-21T01:28:09.674Z,20.12
2018-06-21T01:29:15.200Z,20.23
2018-06-21T01:30:19.707Z,20.23
2018-06-21T01:31:25.216Z,20.05
2018-06-21T01:32:30.740Z,20.10
2018-06-21T01:33:37.258Z,20.12
2018-06-21T01:34:42.789Z,20.02
2018-06-21T01:35:47.294Z,20.03
2018-06-21T01:36:52.808Z,20.00
2018-06-21T01:37:58.328Z,19.97
2018-06-21T01:39:04.855Z,19.97
2018-06-21T01:40:10.365Z,19.95
2018-06-21T01:41:14.876Z,19.88
2018-06-21T01:42:20.456Z,19.83
2018-06-21T01:43:25.907Z,19.88
2018-06-21T01:44:32.436Z,19.87
2018-06-21T01:45:37.952Z,19.84
2018-06-21T01:46:42.458Z,19.86
2018-06-21T01:47:47.976Z,19.83
2018-06-21T01:48:53.487Z,19.80
2018-06-21T01:50:00.024Z,19.83
2018-06-21T01:51:05.539Z,19.79
2018-06-21T01:52:10.042Z,19.78
2018-06-21T01:53:15.562Z,19.78
2018-06-21T01:54:21.074Z,19.72
2018-06-21T01:55:27.599Z,19.70
2018-06-21T01:56:33.129Z,19.69
2018-06-21T01:57:37.639Z,19.65
2018-06-21T01:58:43.141Z,19.60
2018-06-21T01:59:48.662Z,19.48
2018-06-21T02:00:55.189Z,19.53
2018-06-21T02:02:00.709Z,19.50
2018-06-21T02:03:05.213Z,19.47
2018-06-21T02:04:10.742Z,19.42
2018-06-21T02:05:16.247Z,19.46
2018-06-21T02:06:22.786Z,19.36
2018-06-21T02:07:28.288Z,19.43
2018-06-21T02:08:32.812Z,19.36
2018-06-21T02:09:38.314Z,19.43
2018-06-21T02:10:43.839Z,19.39
2018-06-21T02:11:50.356Z,19.46
2018-06-21T02:12:55.870Z,19.40
2018-06-21T02:14:00.388Z,19.38
2018-06-21T02:15:05.912Z,19.42
2018-06-21T02:16:11.423Z,19.36
2018-06-21T02:17:17.941Z,19.33
2018-06-21T02:18:23.457Z,19.29
2018-06-21T02:19:27.977Z,19.35
2018-06-21T02:20:33.499Z,19.32
2018-06-21T02:21:39.018Z,19.40
2018-06-21T02:22:45.529Z,19.36
2018-06-21T02:23:51.076Z,19.39
2018-06-21T02:24:55.548Z,19.39
2018-06-21T02:26:01.067Z,19.38
2018-06-21T02:27:06.587Z,19.33
2018-06-21T02:28:13.121Z,19.39
2018-06-21T02:29:18.629Z,19.35
2018-06-21T02:30:23.126Z,19.35
2018-06-21T02:31:28.648Z,19.33
2018-06-21T02:32:34.167Z,19.33
2018-06-21T02:33:40.688Z,19.36
2018-06-21T02:34:46.208Z,19.33
2018-06-21T02:35:50.723Z,19.33
2018-06-21T02:36:56.237Z,19.36
2018-06-21T02:38:01.752Z,19.40
2018-06-21T02:39:08.281Z,19.40
2018-06-21T02:40:13.805Z,19.46
2018-06-21T02:41:18.302Z,19.38
2018-06-21T02:42:23.820Z,19.43
2018-06-21T02:43:29.326Z,19.42
2018-06-21T02:44:35.864Z,19.43
2018-06-21T02:45:41.374Z,19.47
2018-06-21T02:46:45.884Z,19.43
2018-06-21T02:47:51.406Z,19.47
2018-06-21T02:48:56.913Z,19.50
2018-06-21T02:50:03.458Z,19.50
2018-06-21T02:51:08.966Z,19.46
2018-06-21T02:52:13.463Z,19.51
2018-06-21T02:53:19.028Z,19.50
2018-06-21T02:54:24.500Z,19.61
2018-06-21T02:55:31.030Z,19.60
2018-06-21T02:56:36.544Z,19.65
2018-06-21T02:57:41.056Z,19.63
2018-06-21T02:58:46.567Z,19.70
2018-06-21T02:59:52.080Z,19.66
2018-06-21T03:00:58.604Z,19.65
2018-06-21T03:02:04.673Z,19.70
2018-06-21T03:03:08.628Z,19.61
2018-06-21T03:04:14.151Z,19.73
2018-06-21T03:05:19.656Z,19.73
2018-06-21T03:06:26.197Z,19.76
2018-06-21T03:07:31.712Z,19.75
2018-06-21T03:08:36.223Z,19.78
2018-06-21T03:09:41.741Z,19.87
2018-06-21T03:10:47.259Z,19.79
2018-06-21T03:11:53.782Z,19.78
2018-06-21T03:12:59.297Z,19.78
2018-06-21T03:14:03.809Z,19.79
2018-06-21T03:15:09.312Z,19.86
2018-06-21T03:16:14.849Z,19.80
2018-06-21T03:17:21.367Z,19.84
2018-06-21T03:18:26.887Z,19.84
2018-06-21T03:19:31.394Z,19.86
2018-06-21T03:20:36.982Z,19.87
2018-06-21T03:21:42.423Z,19.98
2018-06-21T03:22:48.951Z,19.93
2018-06-21T03:23:54.473Z,19.95
2018-06-21T03:24:58.967Z,19.94
2018-06-21T03:26:04.493Z,19.97
2018-06-21T03:27:10.010Z,20.02
2018-06-21T03:28:16.533Z,20.06
2018-06-21T03:29:22.053Z,20.09
2018-06-21T03:30:26.567Z,19.95
2018-06-21T03:31:32.073Z,20.09
2018-06-21T03:32:37.588Z,20.03
2018-06-21T03:33:44.114Z,20.13
2018-06-21T03:34:49.640Z,20.09
2018-06-21T03:35:54.136Z,20.13
2018-06-21T03:36:59.667Z,20.08
2018-06-21T03:38:05.178Z,20.05
2018-06-21T03:39:11.701Z,20.15
2018-06-21T03:40:17.225Z,20.16
2018-06-21T03:41:21.743Z,20.08
2018-06-21T03:42:27.242Z,20.10
2018-06-21T03:43:32.759Z,20.18
2018-06-21T03:44:39.294Z,20.06
2018-06-21T03:45:44.805Z,20.10
2018-06-21T03:46:49.317Z,20.15
2018-06-21T03:47:54.829Z,20.18
2018-06-21T03:49:00.342Z,20.16
2018-06-21T03:50:06.874Z,20.16
2018-06-21T03:51:12.400Z,20.10
2018-06-21T03:52:16.936Z,20.12
2018-06-21T03:53:22.408Z,20.06
2018-06-21T03:54:27.942Z,20.18
2018-06-21T03:55:34.460Z,20.15
2018-06-21T03:56:39.985Z,20.12
2018-06-21T03:57:44.540Z,20.15
2018-06-21T03:58:49.996Z,20.12
2018-06-21T03:59:55.513Z,20.09
2018-06-21T04:01:02.043Z,20.00
2018-06-21T04:02:07.572Z,20.13
2018-06-21T04:03:12.087Z,20.16
2018-06-21T04:04:17.577Z,20.09
2018-06-21T04:05:23.162Z,20.10
2018-06-21T04:06:29.636Z,20.12
2018-06-21T04:07:35.144Z,20.02
2018-06-21T04:08:39.651Z,19.95
2018-06-21T04:09:45.174Z,19.98
2018-06-21T04:10:51.208Z,20.03
2018-06-21T04:11:57.216Z,20.06
2018-06-21T04:13:02.744Z,20.06
2018-06-21T04:14:07.245Z,19.98
2018-06-21T04:15:12.758Z,20.03
2018-06-21T04:16:18.282Z,20.03
2018-06-21T04:17:24.859Z,19.97
2018-06-21T04:18:30.316Z,19.97
2018-06-21T04:19:34.818Z,19.98
2018-06-21T04:20:40.342Z,19.95
2018-06-21T04:21:45.861Z,20.00
2018-06-21T04:22:52.385Z,19.98
2018-06-21T04:23:57.902Z,19.98
2018-06-21T04:25:02.408Z,19.97
2018-06-21T04:26:07.931Z,20.03
2018-06-21T04:27:13.440Z,19.98
2018-06-21T04:28:19.961Z,19.98
2018-06-21T04:29:25.546Z,20.06
2018-06-21T04:30:30.054Z,20.09
2018-06-21T04:31:35.519Z,20.08
2018-06-21T04:32:41.028Z,20.03
2018-06-21T04:33:47.551Z,20.05
2018-06-21T04:34:53.070Z,20.12
2018-06-21T04:35:57.594Z,20.13
2018-06-21T04:37:03.090Z,20.12
2018-06-21T04:38:08.613Z,20.16
2018-06-21T04:39:15.132Z,20.18
2018-06-21T04:40:20.658Z,20.18
2018-06-21T04:41:25.170Z,20.18
2018-06-21T04:42:30.680Z,20.16
2018-06-21T04:43:36.196Z,20.20
2018-06-21T04:44:42.731Z,20.24
2018-06-21T04:45:48.271Z,20.27
2018-06-21T04:46:52.761Z,20.24
2018-06-21T04:47:58.263Z,20.34
2018-06-21T04:49:03.777Z,20.31
2018-06-21T04:50:10.309Z,20.35
2018-06-21T04:51:15.839Z,20.39
2018-06-21T04:52:20.331Z,20.35
2018-06-21T04:53:25.848Z,20.42
2018-06-21T04:54:31.394Z,20.39
2018-06-21T04:55:37.891Z,20.43
2018-06-21T04:56:43.419Z,20.49
2018-06-21T04:57:47.925Z,20.47
2018-06-21T04:58:53.443Z,20.50
2018-06-21T04:59:59.009Z,20.50
2018-06-21T05:01:05.491Z,20.58
2018-06-21T05:02:11.025Z,20.59
2018-06-21T05:03:15.516Z,20.64
2018-06-21T05:04:21.035Z,20.51
2018-06-21T05:05:26.549Z,20.65
2018-06-21T05:06:33.076Z,20.51
2018-06-21T05:07:38.592Z,20.47
2018-06-21T05:08:43.093Z,20.61
2018-06-21T05:09:48.609Z,20.59
2018-06-21T05:10:54.126Z,20.65
2018-06-21T05:12:00.655Z,20.65
2018-06-21T05:13:06.181Z,20.64
2018-06-21T05:14:10.687Z,20.71
2018-06-21T05:15:16.196Z,20.74
2018-06-21T05:16:21.711Z,20.72
2018-06-21T05:17:28.237Z,20.74
2018-06-21T05:18:33.771Z,20.80
2018-06-21T05:19:38.275Z,20.83
2018-06-21T05:20:43.784Z,20.77
2018-06-21T05:21:49.302Z,20.80
2018-06-21T05:22:55.831Z,20.96
2018-06-21T05:24:01.355Z,20.90
2018-06-21T05:25:05.853Z,20.87
2018-06-21T05:26:11.366Z,20.91
2018-06-21T05:27:16.882Z,20.89
2018-06-21T05:28:23.427Z,20.99
2018-06-21T05:29:28.940Z,21.05
2018-06-21T05:30:33.445Z,20.98
2018-06-21T05:31:38.957Z,21.08
2018-06-21T05:32:44.478Z,20.93
2018-06-21T05:33:50.993Z,20.93
2018-06-21T05:34:56.543Z,20.89
2018-06-21T05:36:01.112Z,20.87
2018-06-21T05:37:06.547Z,20.96
2018-06-21T05:38:12.065Z,20.91
2018-06-21T05:39:18.596Z,20.90
2018-06-21T05:40:24.105Z,20.93
2018-06-21T05:41:28.611Z,21.04
2018-06-21T05:42:34.123Z,20.91
2018-06-21T05:43:39.663Z,20.91
2018-06-21T05:44:46.174Z,20.91
2018-06-21T05:45:51.695Z,20.99
2018-06-21T05:46:56.189Z,20.89
2018-06-21T05:48:01.731Z,20.90
2018-06-21T05:49:07.235Z,20.89
2018-06-21T05:50:13.793Z,20.81
2018-06-21T05:51:19.267Z,20.77
2018-06-21T05:52:23.794Z,20.71
2018-06-21T05:53:29.307Z,20.76
2018-06-21T05:54:34.823Z,20.74
2018-06-21T05:55:41.346Z,20.79
2018-06-21T05:56:47.003Z,20.69
2018-06-21T05:57:51.366Z,20.66
2018-06-21T05:58:56.909Z,20.59
2018-06-21T06:00:02.413Z,20.62
2018-06-21T06:01:08.945Z,20.64
2018-06-21T06:02:14.614Z,20.50
2018-06-21T06:03:18.955Z,20.51
2018-06-21T06:04:24.492Z,20.59
2018-06-21T06:05:29.987Z,20.56
2018-06-21T06:06:36.519Z,20.53
2018-06-21T06:07:42.042Z,20.46
2018-06-21T06:08:46.534Z,20.46
2018-06-21T06:09:52.060Z,20.43
2018-06-21T06:10:57.578Z,20.43
2018-06-21T06:12:04.101Z,20.38
2018-06-21T06:13:09.641Z,20.43
2018-06-21T06:14:14.134Z,20.38
2018-06-21T06:15:19.652Z,20.42
2018-06-21T06:16:25.159Z,20.35
2018-06-21T06:17:31.693Z,20.34
2018-06-21T06:18:37.203Z,20.30
2018-06-21T06:19:41.714Z,20.34
2018-06-21T06:20:47.230Z,20.21
2018-06-21T06:21:52.760Z,20.23
2018-06-21T06:22:59.324Z,20.28
2018-06-21T06:24:04.793Z,20.28
2018-06-21T06:25:09.308Z,20.28
2018-06-21T06:26:14.819Z,20.20
2018-06-21T06:27:20.331Z,20.23
2018-06-21T06:28:26.865Z,20.20
2018-06-21T06:29:32.384Z,20.20
2018-06-21T06:30:36.883Z,20.18
2018-06-21T06:31:42.397Z,20.13
2018-06-21T06:32:47.908Z,20.06
2018-06-21T06:33:54.447Z,20.09
2018-06-21T06:35:00.033Z,20.12
2018-06-21T06:36:04.476Z,20.08
2018-06-21T06:37:09.994Z,20.06
2018-06-21T06:38:15.506Z,20.13
2018-06-21T06:39:22.028Z,19.98
2018-06-21T06:40:27.553Z,19.98
2018-06-21T06:41:32.055Z,19.94
2018-06-21T06:42:37.580Z,19.83
2018-06-21T06:43:43.084Z,19.76
2018-06-21T06:44:49.643Z,19.72
2018-06-21T06:45:55.179Z,19.60
2018-06-21T06:46:59.642Z,19.50
2018-06-21T06:48:05.172Z,19.40
2018-06-21T06:49:10.672Z,19.24
2018-06-21T06:50:17.208Z,19.24
2018-06-21T06:51:22.718Z,19.11
2018-06-21T06:52:27.227Z,19.13
2018-06-21T06:53:32.745Z,19.14
2018-06-21T06:54:38.282Z,18.94
2018-06-21T06:55:44.788Z,18.84
2018-06-21T06:56:50.311Z,18.82
2018-06-21T06:57:54.808Z,18.79
2018-06-21T06:59:00.336Z,18.70
2018-06-21T07:00:05.841Z,18.72
2018-06-21T07:01:12.371Z,18.70
2018-06-21T07:02:17.877Z,18.73
2018-06-21T07:03:22.392Z,18.73
2018-06-21T07:04:27.908Z,18.70
2018-06-21T07:05:33.428Z,18.72
2018-06-21T07:06:39.966Z,18.68
2018-06-21T07:07:45.541Z,18.64
2018-06-21T07:08:49.957Z,18.72
2018-06-21T07:09:55.498Z,18.70
2018-06-21T07:11:00.999Z,18.62
2018-06-21T07:12:07.531Z,18.62
2018-06-21T07:13:13.044Z,18.70
2018-06-21T07:14:17.616Z,18.65
2018-06-21T07:15:23.061Z,18.67
2018-06-21T07:16:28.584Z,18.54
2018-06-21T07:17:35.111Z,18.54
2018-06-21T07:18:40.627Z,18.55
2018-06-21T07:19:45.125Z,18.57
2018-06-21T07:20:50.644Z,18.57
2018-06-21T07:21:56.159Z,18.59
2018-06-21T07:23:02.690Z,18.57
2018-06-21T07:24:08.225Z,18.57
2018-06-21T07:25:12.730Z,18.57
2018-06-21T07:26:18.240Z,18.62
2018-06-21T07:27:23.742Z,18.57
2018-06-21T07:28:30.287Z,18.58
2018-06-21T07:29:35.803Z,18.62
2018-06-21T07:30:40.292Z,18.65
2018-06-21T07:31:45.806Z,18.68
2018-06-21T07:32:51.318Z,18.64
2018-06-21T07:33:57.849Z,18.72
2018-06-21T07:35:03.361Z,18.70
2018-06-21T07:36:07.869Z,18.80
2018-06-21T07:37:13.398Z,18.92
2018-06-21T07:38:18.908Z,18.90
2018-06-21T07:39:25.433Z,18.97
2018-06-21T07:40:30.948Z,19.05
2018-06-21T07:41:35.442Z,19.13
2018-06-21T07:42:40.971Z,19.24
2018-06-21T07:43:46.491Z,19.28
2018-06-21T07:44:53.003Z,19.36
2018-06-21T07:45:58.557Z,19.35
2018-06-21T07:47:03.035Z,19.43
2018-06-21T07:48:08.536Z,19.48
2018-06-21T07:49:14.060Z,19.61
2018-06-21T07:50:20.589Z,19.54
2018-06-21T07:51:26.112Z,19.68
2018-06-21T07:52:30.602Z,19.65
2018-06-21T07:53:36.141Z,19.70
2018-06-21T07:54:41.640Z,19.73
2018-06-21T07:55:48.187Z,19.70
2018-06-21T07:56:53.686Z,19.66
2018-06-21T07:57:58.186Z,19.70
2018-06-21T07:59:03.878Z,19.76
2018-06-21T08:00:09.820Z,19.73
2018-06-21T08:01:15.749Z,19.80
2018-06-21T08:02:21.267Z,19.88
2018-06-21T08:03:25.777Z,19.88
2018-06-21T08:04:31.294Z,19.88
2018-06-21T08:05:36.766Z,19.93
2018-06-21T08:06:43.356Z,19.90
2018-06-21T08:07:48.857Z,19.98
2018-06-21T08:08:53.393Z,20.00
2018-06-21T08:09:58.869Z,20.03
2018-06-21T08:11:04.405Z,19.97
2018-06-21T08:12:10.917Z,20.03
2018-06-21T08:13:16.435Z,20.05
2018-06-21T08:14:20.950Z,20.16
2018-06-21T08:15:26.467Z,20.06
2018-06-21T08:16:31.977Z,19.97
2018-06-21T08:17:38.499Z,19.80
2018-06-21T08:18:44.016Z,19.57
2018-06-21T08:19:48.529Z,19.32
2018-06-21T08:20:54.044Z,19.25
2018-06-21T08:21:59.588Z,19.14
2018-06-21T08:23:06.143Z,19.08
2018-06-21T08:24:11.602Z,19.08
2018-06-21T08:25:16.117Z,19.05
2018-06-21T08:26:21.630Z,18.91
2018-06-21T08:27:27.165Z,18.84
2018-06-21T08:28:33.662Z,18.87
2018-06-21T08:29:39.185Z,18.80
2018-06-21T08:30:43.690Z,18.97
2018-06-21T08:31:49.211Z,18.95
2018-06-21T08:32:54.854Z,18.94
2018-06-21T08:34:01.258Z,18.99
2018-06-21T08:35:06.775Z,18.86
2018-06-21T08:36:11.290Z,18.95
2018-06-21T08:37:16.789Z,19.02
2018-06-21T08:38:22.301Z,19.01
2018-06-21T08:39:28.825Z,18.99
2018-06-21T08:40:34.351Z,18.94
2018-06-21T08:41:38.847Z,19.06
2018-06-21T08:42:44.362Z,19.06
2018-06-21T08:43:49.887Z,19.14
2018-06-21T08:44:56.410Z,19.11
2018-06-21T08:46:01.960Z,19.14
2018-06-21T08:47:06.457Z,19.15
2018-06-21T08:48:11.941Z,19.21
2018-06-21T08:49:17.455Z,19.24
2018-06-21T08:50:23.993Z,19.29
2018-06-21T08:51:29.506Z,19.39
2018-06-21T08:52:34.013Z,19.48
2018-06-21T08:53:39.520Z,19.46
2018-06-21T08:54:45.057Z,19.46
2018-06-21T08:55:51.597Z,19.47
2018-06-21T08:56:57.095Z,19.46
2018-06-21T08:58:01.589Z,19.38
2018-06-21T08:59:07.111Z,19.36
2018-06-21T09:00:12.646Z,19.46
2018-06-21T09:01:19.154Z,19.43
2018-06-21T09:02:24.698Z,19.69
2018-06-21T09:03:29.194Z,19.78
2018-06-21T09:04:34.691Z,19.78
2018-06-21T09:05:40.206Z,19.72
2018-06-21T09:06:46.734Z,19.70
2018-06-21T09:07:52.246Z,19.63
2018-06-21T09:08:56.763Z,19.58
2018-06-21T09:10:02.285Z,19.60
2018-06-21T09:11:07.785Z,19.51
2018-06-21T09:12:14.324Z,19.53
2018-06-21T09:13:19.822Z,19.54
2018-06-21T09:14:24.396Z,19.60
2018-06-21T09:15:29.850Z,19.68
2018-06-21T09:16:35.369Z,19.78
2018-06-21T09:17:41.903Z,19.80
2018-06-21T09:18:47.422Z,19.73
2018-06-21T09:19:51.920Z,19.80
2018-06-21T09:20:57.440Z,19.88
2018-06-21T09:22:02.957Z,19.95
2018-06-21T09:23:09.472Z,19.80
2018-06-21T09:24:14.997Z,19.90
2018-06-21T09:25:19.502Z,19.84
2018-06-21T09:26:25.016Z,19.79
2018-06-21T09:27:30.538Z,19.80
2018-06-21T09:28:37.059Z,20.03
2018-06-21T09:29:42.603Z,20.09
2018-06-21T09:30:47.084Z,20.10
2018-06-21T09:31:52.605Z,20.09
2018-06-21T09:32:58.128Z,20.10
2018-06-21T09:34:04.639Z,20.09
2018-06-21T09:35:10.160Z,20.21
2018-06-21T09:36:14.686Z,20.06
2018-06-21T09:37:20.240Z,20.10
2018-06-21T09:38:25.712Z,20.18
2018-06-21T09:39:32.238Z,20.13
2018-06-21T09:40:38.369Z,20.10
2018-06-21T09:41:42.245Z,20.05
2018-06-21T09:42:47.779Z,20.21
2018-06-21T09:44:03.830Z,20.16
2018-06-21T09:44:59.819Z,20.15
2018-06-21T09:46:05.331Z,20.23
2018-06-21T09:47:09.832Z,20.09
2018-06-21T09:48:15.339Z,20.23
2018-06-21T09:49:20.865Z,20.18
2018-06-21T09:50:27.396Z,20.20
2018-06-21T09:51:32.923Z,20.08
2018-06-21T09:52:37.491Z,20.08
2018-06-21T09:53:42.965Z,20.23
2018-06-21T09:54:48.448Z,20.33
2018-06-21T09:55:54.993Z,20.49
2018-06-21T09:57:00.501Z,20.30
2018-06-21T09:58:05.006Z,20.35
2018-06-21T09:59:10.518Z,20.23
2018-06-21T10:00:16.044Z,20.27
2018-06-21T10:01:22.562Z,20.21
2018-06-21T10:02:28.078Z,20.18
2018-06-21T10:03:32.609Z,20.13
2018-06-21T10:04:38.097Z,20.15
2018-06-21T10:05:43.613Z,20.10
2018-06-21T10:06:50.171Z,19.98
2018-06-21T10:07:55.684Z,19.95
2018-06-21T10:09:00.170Z,20.03
2018-06-21T10:10:05.681Z,20.10
2018-06-21T10:11:11.201Z,20.18
2018-06-21T10:12:17.742Z,20.21
2018-06-21T10:13:23.239Z,20.31
2018-06-21T10:14:27.769Z,20.43
2018-06-21T10:15:33.280Z,20.41
2018-06-21T10:16:38.785Z,20.41
2018-06-21T10:17:45.315Z,20.49
2018-06-21T10:18:50.840Z,20.51
2018-06-21T10:19:55.356Z,20.69
2018-06-21T10:21:00.851Z,20.80
2018-06-21T10:22:06.373Z,20.90
2018-06-21T10:23:12.895Z,20.80
2018-06-21T10:24:18.413Z,20.90
2018-06-21T10:25:22.934Z,20.96
2018-06-21T10:26:28.437Z,21.06
2018-06-21T10:27:33.966Z,21.17
2018-06-21T10:28:40.475Z,21.23
2018-06-21T10:29:46.001Z,21.36
2018-06-21T10:30:50.511Z,21.38
2018-06-21T10:31:56.016Z,21.44
2018-06-21T10:33:01.570Z,21.48
2018-06-21T10:34:08.064Z,21.48
2018-06-21T10:35:13.581Z,21.36
2018-06-21T10:36:18.102Z,21.45
2018-06-21T10:37:23.609Z,21.57
2018-06-21T10:38:29.135Z,21.71
2018-06-21T10:39:35.656Z,21.78
2018-06-21T10:40:41.179Z,21.81
2018-06-21T10:41:45.690Z,21.92
2018-06-21T10:42:51.194Z,21.64
2018-06-21T10:43:56.710Z,21.56
2018-06-21T10:45:03.239Z,21.46
2018-06-21T10:46:08.771Z,21.26
2018-06-21T10:47:13.261Z,21.13
2018-06-21T10:48:18.793Z,20.84
2018-06-21T10:49:24.297Z,20.90
2018-06-21T10:50:30.825Z,20.91
2018-06-21T10:51:36.341Z,20.80
2018-06-21T10:52:40.856Z,20.87
2018-06-21T10:53:46.366Z,20.93
2018-06-21T10:54:51.896Z,21.14
2018-06-21T10:55:58.407Z,21.34
2018-06-21T10:57:03.995Z,21.41
2018-06-21T10:58:08.441Z,21.42
2018-06-21T10:59:13.958Z,21.46
2018-06-21T11:00:19.475Z,21.56
2018-06-21T11:01:26.024Z,21.69
2018-06-21T11:02:31.516Z,21.69
2018-06-21T11:03:36.042Z,21.81
2018-06-21T11:04:41.538Z,22.02
2018-06-21T11:05:47.056Z,22.06
2018-06-21T11:06:53.596Z,22.01
2018-06-21T11:07:59.117Z,22.09
2018-06-21T11:09:03.610Z,22.02
2018-06-21T11:10:09.150Z,22.02
2018-06-21T11:11:14.671Z,22.10
2018-06-21T11:12:21.166Z,22.10
2018-06-21T11:13:26.709Z,22.10
2018-06-21T11:14:31.198Z,22.07
2018-06-21T11:15:36.730Z,22.19
2018-06-21T11:16:42.244Z,22.07
2018-06-21T11:17:48.772Z,21.98
2018-06-21T11:18:54.276Z,21.79
2018-06-21T11:19:58.785Z,21.61
2018-06-21T11:21:04.312Z,21.46
2018-06-21T11:22:09.826Z,21.48
2018-06-21T11:23:16.344Z,21.44
2018-06-21T11:24:21.878Z,21.44
2018-06-21T11:25:26.387Z,21.48
2018-06-21T11:26:31.902Z,21.64
2018-06-21T11:27:37.478Z,21.67
2018-06-21T11:28:43.943Z,21.63
2018-06-21T11:29:49.453Z,21.66
2018-06-21T11:30:53.963Z,21.41
2018-06-21T11:31:59.480Z,21.39
2018-06-21T11:33:05.008Z,21.50
2018-06-21T11:34:11.543Z,21.56
2018-06-21T11:35:17.045Z,21.60
2018-06-21T11:36:21.569Z,21.54
2018-06-21T11:37:27.069Z,21.57
2018-06-21T11:38:32.584Z,21.56
2018-06-21T11:39:39.131Z,21.48
2018-06-21T11:40:44.626Z,21.44
2018-06-21T11:41:49.146Z,21.35
2018-06-21T11:42:54.665Z,21.21
2018-06-21T11:44:00.192Z,20.98
2018-06-21T11:45:06.708Z,20.84
2018-06-21T11:46:12.231Z,20.84
2018-06-21T11:47:16.722Z,20.80
2018-06-21T11:48:22.253Z,21.01
2018-06-21T11:49:27.754Z,20.96
2018-06-21T11:50:34.284Z,21.05
2018-06-21T11:51:39.823Z,20.87
2018-06-21T11:52:44.315Z,20.79
2018-06-21T11:53:49.833Z,20.76
2018-06-21T11:54:55.363Z,20.79
2018-06-21T11:56:01.894Z,20.74
2018-06-21T11:57:07.406Z,20.65
2018-06-21T11:58:11.921Z,20.64
2018-06-21T11:59:17.426Z,20.49
2018-06-21T12:00:22.950Z,20.54
2018-06-21T12:01:29.471Z,20.54
2018-06-21T12:02:34.983Z,20.56
2018-06-21T12:03:39.492Z,20.38
2018-06-21T12:04:45.012Z,20.39
2018-06-21T12:05:50.528Z,20.33
2018-06-21T12:06:57.063Z,20.31
2018-06-21T12:08:02.569Z,20.18
2018-06-21T12:09:07.088Z,20.31
2018-06-21T12:10:12.661Z,20.42
2018-06-21T12:11:18.120Z,20.50
2018-06-21T12:12:24.626Z,20.50
2018-06-21T12:13:30.162Z,20.47
2018-06-21T12:14:34.661Z,20.34
2018-06-21T12:15:40.174Z,20.43
2018-06-21T12:16:45.696Z,20.35
2018-06-21T12:17:52.231Z,20.23
2018-06-21T12:18:57.749Z,20.12
2018-06-21T12:20:02.243Z,20.08
2018-06-21T12:21:07.775Z,20.21
2018-06-21T12:22:13.303Z,20.31
2018-06-21T12:23:19.814Z,20.24
2018-06-21T12:24:25.317Z,20.33
2018-06-21T12:25:29.838Z,20.35
2018-06-21T12:26:35.358Z,20.35
2018-06-21T12:27:40.882Z,20.47
2018-06-21T12:28:47.387Z,20.43
2018-06-21T12:29:52.932Z,20.53
2018-06-21T12:30:57.421Z,20.62
2018-06-21T12:32:02.954Z,20.81
2018-06-21T12:33:08.453Z,20.91
2018-06-21T12:34:14.986Z,20.91
2018-06-21T12:35:20.485Z,20.80
2018-06-21T12:36:24.996Z,20.65
2018-06-21T12:37:30.505Z,20.65
2018-06-21T12:38:36.030Z,20.59
2018-06-21T12:39:42.561Z,20.59
2018-06-21T12:40:48.075Z,20.41
2018-06-21T12:41:52.589Z,20.54
2018-06-21T12:42:58.100Z,20.41
2018-06-21T12:44:03.610Z,20.54
2018-06-21T12:45:10.139Z,20.74
2018-06-21T12:46:15.665Z,20.90
2018-06-21T12:47:20.170Z,21.04
2018-06-21T12:48:25.682Z,20.90
2018-06-21T12:49:31.204Z,20.98
2018-06-21T12:50:37.726Z,20.93
2018-06-21T12:51:43.248Z,20.77
2018-06-21T12:52:47.759Z,20.68
2018-06-21T12:53:53.271Z,20.71
2018-06-21T12:54:58.777Z,20.58
2018-06-21T12:56:05.317Z,20.56
2018-06-21T12:57:10.862Z,20.62
2018-06-21T12:58:15.356Z,20.54
2018-06-21T12:59:20.868Z,20.30
2018-06-21T13:00:26.375Z,20.15
2018-06-21T13:01:32.900Z,20.15
2018-06-21T13:02:38.422Z,20.18
2018-06-21T13:03:42.928Z,20.41
2018-06-21T13:04:48.435Z,20.51
2018-06-21T13:05:54.041Z,20.58
2018-06-21T13:07:00.481Z,20.69
2018-06-21T13:08:06.009Z,20.72
2018-06-21T13:09:10.503Z,20.66
2018-06-21T13:10:16.015Z,20.81
2018-06-21T13:11:21.555Z,20.80
2018-06-21T13:12:28.109Z,20.86
2018-06-21T13:13:33.580Z,20.98
2018-06-21T13:14:38.079Z,21.02
2018-06-21T13:15:43.618Z,21.04
2018-06-21T13:16:49.123Z,20.89
2018-06-21T13:17:55.674Z,21.02
2018-06-21T13:19:01.174Z,21.08
2018-06-21T13:20:05.679Z,21.11
2018-06-21T13:21:11.213Z,21.32
2018-06-21T13:22:16.735Z,21.27
2018-06-21T13:23:23.234Z,21.35
2018-06-21T13:24:28.777Z,21.35
2018-06-21T13:25:33.268Z,21.26
2018-06-21T13:26:38.770Z,21.35
2018-06-21T13:27:44.297Z,21.39
2018-06-21T13:28:50.848Z,21.19
2018-06-21T13:29:56.331Z,21.13
2018-06-21T13:31:00.858Z,21.01
2018-06-21T13:32:06.360Z,21.06
2018-06-21T13:33:11.888Z,21.09
2018-06-21T13:34:18.411Z,21.06
2018-06-21T13:35:23.944Z,21.11
2018-06-21T13:36:28.436Z,21.29
2018-06-21T13:37:33.956Z,21.39
2018-06-21T13:38:39.471Z,21.32
2018-06-21T13:39:45.995Z,21.29
2018-06-21T13:40:51.521Z,21.30
2018-06-21T13:41:56.029Z,21.30
2018-06-21T13:43:01.555Z,21.44
2018-06-21T13:44:07.051Z,21.42
2018-06-21T13:45:13.579Z,21.32
2018-06-21T13:46:19.092Z,21.32
2018-06-21T13:47:23.606Z,21.42
2018-06-21T13:48:29.131Z,21.26
2018-06-21T13:49:34.648Z,21.27
2018-06-21T13:50:41.168Z,21.11
2018-06-21T13:51:46.684Z,20.96
2018-06-21T13:52:51.202Z,20.69
2018-06-21T13:53:56.701Z,20.64
2018-06-21T13:55:02.240Z,20.53
2018-06-21T13:56:08.752Z,20.42
2018-06-21T13:57:14.300Z,20.50
2018-06-21T13:58:18.768Z,20.43
2018-06-21T13:59:24.315Z,20.34
2018-06-21T14:00:29.836Z,20.30
2018-06-21T14:01:36.352Z,20.24
2018-06-21T14:02:41.864Z,20.18
2018-06-21T14:03:46.361Z,20.06